Time;durP1;ratioP1;P1;durP2;ratioP2;P2;SDS_P1;SDS_P2;PMS_P1;PMS_P2;Temp;Humidity;BMP_temperature;BMP_pressure;BME280_temperature;BME280_humidity;BME280_pressure;Samples;Min_cycle;Max_cycle;Signal;HPM_P1;HPM_P2
2022/02/08 00:02:15;;;;;;;3.90;0.85;;;11.50;72.80;;;;;;5041818;28;20096;-80
2022/02/08 00:04:42;;;;;;;4.63;1.10;;;11.60;73.00;;;;;;5030905;28;20028;-80
2022/02/08 00:07:10;;;;;;;4.95;1.30;;;11.50;72.80;;;;;;5031061;28;20136;-80
2022/02/08 00:09:37;;;;;;;5.22;0.93;;;11.50;72.90;;;;;;5041658;28;20035;-81
2022/02/08 00:12:04;;;;;;;4.30;1.40;;;11.60;73.50;;;;;;5032897;28;20558;-80
2022/02/08 00:14:30;;;;;;;4.75;1.55;;;11.50;72.80;;;;;;5050958;28;20357;-80
2022/02/08 00:16:56;;;;;;;5.50;1.40;;;11.50;72.80;;;;;;5050493;28;20025;-80
2022/02/08 00:19:23;;;;;;;4.25;1.08;;;11.60;73.00;;;;;;5038665;28;20048;-80
2022/02/08 00:21:49;;;;;;;3.78;1.17;;;11.60;73.00;;;;;;5030600;28;20095;-80
2022/02/08 00:24:15;;;;;;;5.10;1.52;;;11.60;73.00;;;;;;5012745;28;20132;-80
2022/02/08 00:26:41;;;;;;;3.38;0.90;;;11.60;73.00;;;;;;5030806;28;20034;-80
2022/02/08 00:29:07;;;;;;;2.50;0.90;;;11.60;72.90;;;;;;5012782;28;20112;-79
2022/02/08 00:31:33;;;;;;;3.67;0.90;;;11.60;72.90;;;;;;5030601;28;20373;-80
2022/02/08 00:33:59;;;;;;;5.38;1.13;;;11.60;72.90;;;;;;5030622;28;20030;-79
2022/02/08 00:36:25;;;;;;;3.70;1.10;;;11.60;72.90;;;;;;5012479;28;20040;-80
2022/02/08 00:38:53;;;;;;;7.50;2.58;;;11.60;72.90;;;;;;5030252;28;20034;-80
2022/02/08 00:41:24;;;;;;;5.22;1.20;;;11.60;73.40;;;;;;5030449;28;20072;-81
2022/02/08 00:44:13;;;;;;;7.00;0.98;;;11.60;72.80;;;;;;5012677;28;20676;-80
2022/02/08 00:49:31;;;;;;;3.92;0.90;;;11.60;72.80;;;;;;5029987;28;20519;-83
2022/02/08 00:52:05;;;;;;;7.93;1.13;;;11.60;72.80;;;;;;5012353;28;20520;-81
2022/02/08 00:54:32;;;;;;;7.90;1.15;;;11.60;72.80;;;;;;5028599;28;20056;-82
2022/02/08 00:56:58;;;;;;;5.63;1.20;;;11.60;72.70;;;;;;5012125;28;20030;-82
2022/02/08 00:59:24;;;;;;;2.15;0.90;;;11.60;72.70;;;;;;5011606;28;20511;-82
2022/02/08 01:01:50;;;;;;;5.35;0.93;;;11.60;73.20;;;;;;5029998;28;20102;-81
2022/02/08 01:04:18;;;;;;;3.92;1.50;;;11.60;72.70;;;;;;5030001;28;20053;-80
2022/02/08 01:06:45;;;;;;;3.33;0.90;;;11.70;72.90;;;;;;5029571;28;20143;-80
2022/02/08 01:09:15;;;;;;;2.70;1.00;;;11.70;72.80;;;;;;5029676;28;20478;-80
2022/02/08 01:11:44;;;;;;;4.25;1.20;;;11.70;72.80;;;;;;5029934;28;20044;-80
2022/02/08 01:14:10;;;;;;;6.07;1.20;;;11.70;72.80;;;;;;5029538;28;20029;-80
2022/02/08 01:16:36;;;;;;;5.95;1.40;;;11.70;72.80;;;;;;5029671;28;20123;-79
2022/02/08 01:19:04;;;;;;;2.33;0.90;;;11.70;72.70;;;;;;5011829;28;20443;-79
2022/02/08 01:21:31;;;;;;;5.18;1.05;;;11.70;72.70;;;;;;5012338;28;20495;-78
2022/02/08 01:24:01;;;;;;;2.72;0.80;;;11.70;72.70;;;;;;5011844;28;20044;-80
2022/02/08 01:26:28;;;;;;;2.38;0.80;;;11.70;72.70;;;;;;5029670;28;20444;-81
2022/02/08 01:29:18;;;;;;;4.28;1.27;;;11.70;72.70;;;;;;5011967;28;20029;-81
2022/02/08 01:31:46;;;;;;;4.25;0.95;;;11.70;72.70;;;;;;5014965;28;20045;-81
2022/02/08 01:34:40;;;;;;;1.83;0.80;;;11.70;72.70;;;;;;5011640;28;20029;-80
2022/02/08 01:41:07;;;;;;;4.05;0.98;;;11.70;72.70;;;;;;5003177;28;20034;-81
2022/02/08 01:45:54;;;;;;;4.80;1.58;;;11.70;72.60;;;;;;5011466;28;20030;-80
2022/02/08 01:48:59;;;;;;;5.60;1.35;;;11.70;72.60;;;;;;5011365;28;20057;-80
2022/02/08 01:51:12;;;;;;;4.22;1.02;;;11.70;72.60;;;;;;5026343;28;20046;-81
2022/02/08 01:53:39;;;;;;;4.10;1.00;;;11.70;72.50;;;;;;5028796;28;20088;-81
2022/02/08 01:56:06;;;;;;;4.18;1.50;;;11.70;72.50;;;;;;5011069;28;20095;-82
2022/02/08 01:58:32;;;;;;;6.60;1.30;;;11.80;72.70;;;;;;5011736;28;20032;-81
2022/02/08 02:01:14;;;;;;;3.37;0.90;;;11.70;72.50;;;;;;5012315;28;20026;-81
2022/02/08 02:03:42;;;;;;;4.47;1.45;;;11.70;72.50;;;;;;5012007;28;20341;-81
2022/02/08 02:06:09;;;;;;;4.00;1.05;;;11.70;72.50;;;;;;5011656;28;20604;-81
2022/02/08 02:08:36;;;;;;;5.18;1.27;;;11.70;72.40;;;;;;5016426;28;20079;-81
2022/02/08 02:11:03;;;;;;;6.40;1.27;;;11.70;72.40;;;;;;5030897;28;20029;-82
2022/02/08 02:13:46;;;;;;;5.78;1.10;;;11.80;72.60;;;;;;5030928;28;20602;-81
2022/02/08 02:16:23;;;;;;;3.42;1.20;;;11.80;72.50;;;;;;5031097;28;20059;-80
2022/02/08 02:18:49;;;;;;;6.15;1.33;;;11.70;72.30;;;;;;5030517;28;20392;-81
2022/02/08 02:21:17;;;;;;;6.90;1.88;;;11.70;72.30;;;;;;5030943;28;20020;-81
2022/02/08 02:23:45;;;;;;;4.00;1.08;;;11.70;72.30;;;;;;5030714;28;20033;-81
2022/02/08 02:26:18;;;;;;;3.15;1.02;;;11.70;72.30;;;;;;5047532;28;20074;-82
2022/02/08 02:28:44;;;;;;;3.45;0.90;;;11.70;72.30;;;;;;5030530;28;20031;-82
2022/02/08 02:31:10;;;;;;;4.35;1.92;;;11.70;72.30;;;;;;5030472;28;20488;-82
2022/02/08 02:33:36;;;;;;;3.63;0.90;;;11.70;72.30;;;;;;5046965;28;20032;-81
2022/02/08 02:36:02;;;;;;;6.75;2.17;;;11.70;72.30;;;;;;5030723;28;20036;-82
2022/02/08 02:38:29;;;;;;;6.30;1.35;;;11.70;72.20;;;;;;5026842;28;20112;-82
2022/02/08 02:40:55;;;;;;;6.80;1.15;;;11.70;72.20;;;;;;5013321;28;20037;-82
2022/02/08 02:43:28;;;;;;;5.13;1.40;;;11.70;72.20;;;;;;5012479;28;20025;-82
2022/02/08 02:45:54;;;;;;;3.78;1.25;;;11.70;72.20;;;;;;5019624;28;20040;-82
2022/02/08 02:48:24;;;;;;;4.28;1.05;;;11.80;72.40;;;;;;5051278;28;20250;-83
2022/02/08 02:50:54;;;;;;;7.05;1.95;;;11.80;72.30;;;;;;5034546;28;20040;-80
2022/02/08 02:53:34;;;;;;;6.13;1.95;;;11.80;72.30;;;;;;5051711;28;20392;-80
2022/02/08 02:56:06;;;;;;;5.97;1.25;;;11.80;72.20;;;;;;5034431;28;20132;-82
2022/02/08 02:58:35;;;;;;;6.50;1.55;;;11.80;72.20;;;;;;5033224;28;20037;-81
2022/02/08 03:17:38;;;;;;;4.85;0.95;;;11.80;72.10;;;;;;5032755;28;20029;-79
2022/02/08 03:20:05;;;;;;;5.20;1.05;;;11.70;71.90;;;;;;5018140;28;20078;-81
2022/02/08 03:22:32;;;;;;;6.50;1.17;;;11.80;72.10;;;;;;5032623;28;20049;-80
2022/02/08 03:24:59;;;;;;;3.80;1.05;;;11.80;72.10;;;;;;5033041;28;20047;-80
2022/02/08 03:27:27;;;;;;;5.20;1.00;;;11.70;71.90;;;;;;5033007;28;20017;-83
2022/02/08 03:29:55;;;;;;;4.72;1.48;;;11.70;71.90;;;;;;5032987;28;20427;-83
2022/02/08 03:32:23;;;;;;;6.95;2.03;;;11.80;72.10;;;;;;5039072;28;20116;-81
2022/02/08 03:34:51;;;;;;;6.40;1.27;;;11.80;72.10;;;;;;5042794;28;20029;-81
2022/02/08 03:37:18;;;;;;;4.00;1.08;;;11.80;72.00;;;;;;5043417;28;20101;-82
2022/02/08 03:39:54;;;;;;;3.03;1.48;;;11.80;72.00;;;;;;5043011;28;20028;-81
2022/02/08 03:42:25;;;;;;;2.65;0.88;;;11.80;72.00;;;;;;5043863;28;20028;-81
2022/02/08 03:44:59;;;;;;;3.17;1.00;;;11.80;71.90;;;;;;5041724;28;20032;-81
2022/02/08 03:47:26;;;;;;;4.25;0.98;;;11.80;71.90;;;;;;5038374;28;20056;-82
2022/02/08 03:49:56;;;;;;;2.63;0.88;;;11.80;71.90;;;;;;5039132;28;20035;-80
2022/02/08 03:52:23;;;;;;;5.40;1.15;;;11.80;71.90;;;;;;5040710;28;20041;-80
2022/02/08 03:54:52;;;;;;;3.85;1.00;;;11.70;71.70;;;;;;5040547;28;20392;-80
2022/02/08 03:57:23;;;;;;;2.30;1.42;;;11.80;71.90;;;;;;5034253;28;20039;-80
2022/02/08 03:59:50;;;;;;;4.03;1.38;;;11.80;71.90;;;;;;5034141;28;20035;-80
2022/02/08 04:07:23;;;;;;;4.25;0.98;;;11.80;71.90;;;;;;5050090;28;20412;-80
2022/02/08 04:09:51;;;;;;;4.68;1.00;;;11.80;71.80;;;;;;5050783;28;20029;-81
2022/02/08 04:12:28;;;;;;;3.85;1.40;;;11.70;71.70;;;;;;5050225;28;20037;-81
2022/02/08 04:41:36;;;;;;;2.90;0.85;;;11.70;71.50;;;;;;5054035;28;20503;-83
2022/02/08 04:49:06;;;;;;;5.75;1.17;;;11.80;71.70;;;;;;5053205;28;20032;-80
2022/02/08 04:51:41;;;;;;;2.45;1.00;;;11.70;71.60;;;;;;5053442;28;20041;-80
2022/02/08 04:54:17;;;;;;;4.75;1.25;;;11.70;71.60;;;;;;5053817;28;20040;-79
2022/02/08 04:57:05;;;;;;;4.20;1.08;;;11.70;71.50;;;;;;5053660;28;20033;-80
2022/02/08 05:35:21;;;;;;;4.57;1.70;;;11.80;71.50;;;;;;5052837;28;20032;-79
2022/02/08 05:43:15;;;;;;;3.97;1.02;;;11.80;71.60;;;;;;5052253;28;20025;-79
2022/02/08 05:46:14;;;;;;;4.70;1.58;;;11.70;71.30;;;;;;5051872;28;20040;-80
2022/02/08 05:48:36;;;;;;;4.00;1.00;;;11.70;71.30;;;;;;5048847;28;20130;-80
2022/02/08 05:51:12;;;;;;;3.03;1.17;;;11.70;71.30;;;;;;5049627;28;20035;-81
2022/02/08 05:53:43;;;;;;;5.20;1.00;;;11.70;71.30;;;;;;5050719;28;20068;-79
2022/02/08 05:56:10;;;;;;;7.05;2.10;;;11.70;71.30;;;;;;5051456;28;20048;-79
2022/02/08 05:58:37;;;;;;;6.00;1.17;;;11.70;71.30;;;;;;5042203;28;20044;-81
2022/02/08 06:01:03;;;;;;;2.83;1.00;;;11.70;71.30;;;;;;5031427;28;20404;-78
2022/02/08 06:03:58;;;;;;;3.28;1.05;;;11.70;71.40;;;;;;5028043;28;20052;-79
2022/02/08 06:06:25;;;;;;;4.25;0.88;;;11.70;71.30;;;;;;5049341;28;20041;-77
2022/02/08 06:08:52;;;;;;;4.20;1.00;;;11.70;71.30;;;;;;5049471;28;20053;-77
2022/02/08 06:11:18;;;;;;;2.72;1.25;;;11.80;71.50;;;;;;5048998;28;20396;-77
2022/02/08 06:13:44;;;;;;;2.10;0.98;;;11.70;71.30;;;;;;5024794;28;20041;-78
2022/02/08 06:16:17;;;;;;;5.45;2.00;;;11.80;71.50;;;;;;5030658;28;20033;-78
2022/02/08 06:18:43;;;;;;;3.78;0.82;;;11.80;71.40;;;;;;5029424;28;20033;-79
2022/02/08 06:21:09;;;;;;;2.95;1.10;;;11.80;71.40;;;;;;5028161;28;20076;-80
2022/02/08 06:23:36;;;;;;;2.47;0.70;;;11.80;71.40;;;;;;5017141;28;20021;-81
2022/02/08 06:26:03;;;;;;;4.03;0.77;;;11.80;71.40;;;;;;5044552;28;20025;-78
2022/02/08 06:28:29;;;;;;;4.63;1.63;;;11.80;71.30;;;;;;5031771;28;20021;-79
2022/02/08 06:30:55;;;;;;;4.75;1.20;;;11.80;71.30;;;;;;5012594;28;20082;-78
2022/02/08 06:33:21;;;;;;;4.45;1.00;;;11.80;71.30;;;;;;5036047;28;20514;-76
2022/02/08 06:35:48;;;;;;;2.95;1.35;;;11.80;71.30;;;;;;5038019;28;20108;-76
2022/02/08 06:38:16;;;;;;;2.03;0.80;;;11.80;71.30;;;;;;5034196;28;20031;-77
2022/02/08 06:40:47;;;;;;;3.35;1.30;;;11.80;71.30;;;;;;5037214;28;20029;-80
2022/02/08 06:43:13;;;;;;;3.05;0.98;;;11.80;71.20;;;;;;5032904;28;20052;-81
2022/02/08 06:45:40;;;;;;;3.70;0.82;;;11.80;71.70;;;;;;5032880;28;20064;-79
2022/02/08 06:48:07;;;;;;;3.30;0.57;;;11.80;71.20;;;;;;5035381;28;20029;-81
2022/02/08 06:50:33;;;;;;;2.15;0.75;;;11.80;71.20;;;;;;5039058;28;20115;-79
2022/02/08 06:52:59;;;;;;;2.08;0.73;;;11.80;71.20;;;;;;5045639;28;20037;-85
2022/02/08 06:55:28;;;;;;;2.28;0.80;;;11.80;71.20;;;;;;5043140;28;20548;-85
2022/02/08 06:58:06;;;;;;;4.80;1.13;;;11.80;71.20;;;;;;5032519;28;20148;-85
2022/02/08 07:00:38;;;;;;;3.65;1.00;;;11.80;71.20;;;;;;5043139;28;20068;-84
2022/02/08 07:03:10;;;;;;;1.23;0.40;;;11.80;71.20;;;;;;5030953;28;20060;-83
2022/02/08 07:05:37;;;;;;;2.95;0.80;;;11.80;71.20;;;;;;5030864;28;20552;-82
2022/02/08 07:08:04;;;;;;;3.80;0.90;;;11.90;71.30;;;;;;5031587;28;20045;-83
2022/02/08 07:10:32;;;;;;;5.18;0.95;;;11.90;71.30;;;;;;5036124;28;20025;-82
2022/02/08 07:12:59;;;;;;;5.75;1.10;;;11.90;71.30;;;;;;5010571;28;20045;-80
2022/02/08 07:15:25;;;;;;;4.03;1.02;;;11.80;71.10;;;;;;5045251;28;20025;-80
2022/02/08 07:17:51;;;;;;;3.45;0.93;;;11.90;71.20;;;;;;5033183;28;20036;-81
2022/02/08 07:20:18;;;;;;;4.93;1.40;;;11.90;71.20;;;;;;5043478;28;20111;-81
2022/02/08 07:22:46;;;;;;;1.85;0.80;;;11.90;71.20;;;;;;5014404;28;20098;-80
2022/02/08 07:25:14;;;;;;;1.48;0.65;;;11.90;71.20;;;;;;5048120;28;20384;-85
2022/02/08 07:27:40;;;;;;;3.60;0.80;;;11.90;71.20;;;;;;5027796;28;20067;-83
2022/02/08 07:30:11;;;;;;;3.13;0.95;;;11.90;71.20;;;;;;5028589;28;20033;-85
2022/02/08 07:32:39;;;;;;;5.80;1.00;;;11.90;71.20;;;;;;5032747;28;20033;-81
2022/02/08 07:38:03;;;;;;;5.70;1.58;;;11.90;71.20;;;;;;5027838;28;20263;-82
2022/02/08 07:42:56;;;;;;;3.47;0.90;;;11.90;71.10;;;;;;5026037;28;20033;-79
2022/02/08 07:45:34;;;;;;;3.50;0.65;;;11.90;71.20;;;;;;5008834;28;20018;-81
2022/02/08 07:48:00;;;;;;;1.83;0.60;;;12.00;71.40;;;;;;5036123;28;20083;-81
2022/02/08 07:50:27;;;;;;;3.22;0.60;;;11.90;71.20;;;;;;5026316;28;20119;-81
2022/02/08 07:52:53;;;;;;;2.33;0.90;;;11.90;71.20;;;;;;5029412;28;20037;-81
2022/02/08 07:55:21;;;;;;;3.50;0.70;;;11.90;71.20;;;;;;5047147;28;20458;-77
2022/02/08 07:57:47;;;;;;;5.47;0.98;;;12.00;71.30;;;;;;5046978;28;20033;-82
2022/02/08 08:00:14;;;;;;;2.83;1.00;;;12.00;71.30;;;;;;5029652;28;20071;-81
2022/02/08 08:02:40;;;;;;;3.42;0.93;;;12.00;71.20;;;;;;5047138;28;20029;-78
2022/02/08 08:05:08;;;;;;;3.97;0.95;;;12.00;71.20;;;;;;5046358;28;20115;-77
2022/02/08 08:07:34;;;;;;;4.00;0.80;;;12.00;71.20;;;;;;5046158;28;20056;-78
2022/02/08 08:10:02;;;;;;;3.95;0.85;;;12.10;71.40;;;;;;5049346;28;20032;-78
2022/02/08 08:12:29;;;;;;;4.10;1.00;;;12.10;71.30;;;;;;5050831;28;20055;-78
2022/02/08 08:14:58;;;;;;;3.33;0.73;;;12.10;71.20;;;;;;5050377;28;20036;-76
2022/02/08 08:19:56;;;;;;;4.38;1.63;;;12.20;71.40;;;;;;5050754;28;20031;-78
2022/02/08 08:22:22;;;;;;;4.35;0.70;;;12.20;71.30;;;;;;5050834;28;20064;-78
2022/02/08 08:24:49;;;;;;;1.08;0.88;;;12.20;71.30;;;;;;5051005;28;20082;-81
2022/02/08 08:27:15;;;;;;;1.73;0.80;;;12.20;71.20;;;;;;5050889;28;20193;-80
2022/02/08 08:29:42;;;;;;;3.35;1.63;;;12.20;71.20;;;;;;5031060;28;20028;-84
2022/02/08 08:32:09;;;;;;;6.20;1.17;;;12.30;71.30;;;;;;5017497;28;20037;-82
2022/02/08 08:34:35;;;;;;;3.95;0.90;;;12.30;71.30;;;;;;5032082;28;20025;-86
2022/02/08 08:37:03;;;;;;;6.18;1.83;;;12.30;71.20;;;;;;5031092;28;20049;-85
2022/02/08 08:39:39;;;;;;;6.63;2.35;;;12.30;71.20;;;;;;5030096;28;20128;-86
2022/02/08 08:50:32;;;;;;;2.83;0.88;;;12.50;71.20;;;;;;5038607;28;20093;-83
2022/02/08 08:52:58;;;;;;;3.78;0.75;;;12.60;71.30;;;;;;5050410;28;20079;-89
2022/02/08 08:55:24;;;;;;;2.22;0.60;;;12.60;71.10;;;;;;5051226;28;20517;-77
2022/02/08 08:57:51;;;;;;;2.85;0.90;;;12.70;71.20;;;;;;5032961;28;20069;-80
2022/02/08 09:00:17;;;;;;;7.00;2.78;;;12.70;71.10;;;;;;5015714;28;20033;-79
2022/02/08 09:02:43;;;;;;;1.95;0.88;;;12.80;71.20;;;;;;5032130;28;20035;-79
2022/02/08 09:05:13;;;;;;;5.97;0.93;;;12.80;71.10;;;;;;5050067;28;20033;-78
2022/02/08 09:07:41;;;;;;;4.47;1.35;;;12.90;71.10;;;;;;5049554;28;20052;-80
2022/02/08 09:10:09;;;;;;;2.58;0.82;;;13.00;71.20;;;;;;5050319;28;20464;-78
2022/02/08 09:15:34;;;;;;;5.88;2.63;;;13.00;70.90;;;;;;5033959;28;20742;-87
2022/02/08 09:18:39;;;;;;;3.25;0.90;;;13.10;71.00;;;;;;5052630;28;20604;-88
2022/02/08 09:21:39;;;;;;;2.13;0.60;;;13.20;71.00;;;;;;5051417;28;20126;-83
2022/02/08 09:29:09;;;;;;;2.03;0.70;;;13.30;70.90;;;;;;5051597;28;20025;-76
2022/02/08 09:31:37;;;;;;;3.67;0.80;;;13.40;71.00;;;;;;5051343;28;20052;-77
2022/02/08 09:34:05;;;;;;;3.50;0.88;;;13.40;70.90;;;;;;5040006;28;20037;-78
2022/02/08 09:36:31;;;;;;;3.95;1.15;;;13.50;71.00;;;;;;5033950;28;20061;-78
2022/02/08 09:38:57;;;;;;;3.97;0.80;;;13.50;70.90;;;;;;5046598;28;20144;-79
2022/02/08 09:41:24;;;;;;;5.57;0.90;;;13.60;71.00;;;;;;5030240;28;20030;-80
2022/02/08 09:43:51;;;;;;;6.45;2.00;;;13.60;70.80;;;;;;5030182;28;20119;-80
2022/02/08 09:46:18;;;;;;;3.88;0.88;;;13.70;70.90;;;;;;5011928;28;20392;-78
2022/02/08 09:48:50;;;;;;;4.88;0.70;;;13.70;70.80;;;;;;5029715;28;20033;-79
2022/02/08 09:51:17;;;;;;;2.22;0.82;;;13.80;70.90;;;;;;5029433;28;20022;-77
2022/02/08 09:53:44;;;;;;;2.85;0.85;;;13.80;71.30;;;;;;5027715;28;20042;-78
2022/02/08 09:56:12;;;;;;;3.80;0.85;;;13.90;70.80;;;;;;5011885;28;20033;-79
2022/02/08 09:58:38;;;;;;;3.30;0.90;;;13.90;70.70;;;;;;5020408;28;20395;-79
2022/02/08 10:01:09;;;;;;;3.38;0.77;;;14.00;70.80;;;;;;5031546;28;20036;-79
2022/02/08 10:03:35;;;;;;;3.65;0.80;;;14.10;70.90;;;;;;5049437;28;20036;-79
2022/02/08 10:06:02;;;;;;;4.70;1.45;;;14.10;70.80;;;;;;5031168;28;20444;-79
2022/02/08 10:08:29;;;;;;;4.18;1.05;;;14.10;70.70;;;;;;5041244;28;20064;-77
2022/02/08 10:10:55;;;;;;;4.38;1.00;;;14.20;70.70;;;;;;5028981;28;20029;-79
2022/02/08 10:23:55;;;;;;;4.47;0.75;;;14.40;70.50;;;;;;5028697;28;20060;-78
2022/02/08 10:26:27;;;;;;;3.53;1.35;;;14.50;70.50;;;;;;5028481;28;20026;-83
2022/02/08 10:29:00;;;;;;;3.55;1.02;;;14.60;70.60;;;;;;5027045;28;20033;-77
2022/02/08 10:31:58;;;;;;;4.72;0.98;;;14.70;70.70;;;;;;5028917;28;20025;-78
2022/02/08 10:40:15;;;;;;;4.75;1.10;;;14.90;70.50;;;;;;5028037;28;20656;-79
2022/02/08 10:42:50;;;;;;;2.67;0.85;;;15.00;70.50;;;;;;5010766;28;20032;-79
2022/02/08 10:45:25;;;;;;;3.95;1.17;;;15.00;70.40;;;;;;5011119;28;20029;-79
2022/02/08 10:47:58;;;;;;;4.00;0.85;;;15.10;70.40;;;;;;5030436;28;20507;-79
2022/02/08 10:50:26;;;;;;;7.13;0.95;;;15.20;70.40;;;;;;5048495;28;20077;-80
2022/02/08 10:52:55;;;;;;;3.25;0.95;;;15.30;70.40;;;;;;5047918;28;20040;-80
2022/02/08 10:58:40;;;;;;;4.05;0.65;;;15.40;70.20;;;;;;5030502;28;20502;-79
2022/02/08 11:03:11;;;;;;;3.33;1.08;;;15.60;70.20;;;;;;5029970;28;20029;-80
2022/02/08 11:05:50;;;;;;;5.23;0.80;;;15.70;70.20;;;;;;5047585;28;20029;-80
2022/02/08 11:08:39;;;;;;;2.25;0.60;;;15.80;70.20;;;;;;5047048;28;20623;-79
2022/02/08 11:16:42;;;;;;;2.17;0.50;;;16.00;70.00;;;;;;5047258;28;20384;-77
2022/02/08 11:19:25;;;;;;;1.83;0.60;;;16.10;70.10;;;;;;5047622;28;20259;-79
2022/02/08 11:22:09;;;;;;;;;;;16.20;70.00;;;;;;5030137;28;20377;-80
2022/02/08 11:24:45;;;;;;;4.70;1.23;;;16.30;70.00;;;;;;5046911;28;19909;-79
2022/02/08 11:27:16;;;;;;;4.80;1.02;;;16.30;69.90;;;;;;5047778;28;20025;-79
2022/02/08 11:29:49;;;;;;;2.55;1.05;;;16.40;70.00;;;;;;5047091;28;20369;-79
2022/02/08 11:45:56;;;;;;;3.28;0.60;;;16.70;69.80;;;;;;5027156;28;20227;-81
2022/02/08 11:49:26;;;;;;;3.05;0.90;;;16.80;69.80;;;;;;5032083;28;20052;-81
2022/02/08 11:57:51;;;;;;;4.70;1.67;;;17.00;69.70;;;;;;5016423;28;20087;-82
2022/02/08 12:00:18;;;;;;;5.03;0.85;;;17.10;69.80;;;;;;5049100;28;20112;-89
2022/02/08 12:03:15;;;;;;;2.45;1.17;;;17.10;69.60;;;;;;5068869;28;20041;-79
2022/02/08 12:05:49;;;;;;;4.22;2.13;;;17.20;69.70;;;;;;5066798;28;20084;-86
2022/02/08 12:08:16;;;;;;;1.42;0.60;;;17.20;69.60;;;;;;5035263;28;20522;-80
2022/02/08 12:11:06;;;;;;;5.25;1.52;;;17.20;69.50;;;;;;5036676;28;20479;-85
2022/02/08 12:33:11;;;;;;;1.80;1.00;;;17.50;69.00;;;;;;5046742;28;20491;-82
2022/02/08 12:57:47;;;;;;;3.13;0.55;;;17.90;68.40;;;;;;5031071;28;20273;-78
2022/02/08 13:00:33;;;;;;;2.17;0.68;;;17.90;68.30;;;;;;5031984;28;20021;-79
2022/02/08 13:03:14;;;;;;;3.20;0.80;;;17.90;68.20;;;;;;5028638;28;20493;-78
2022/02/08 14:08:43;;;;;;;3.60;1.33;;;18.10;67.00;;;;;;5009869;28;20132;-78
2022/02/08 14:29:52;;;;;;;4.28;1.45;;;18.10;67.00;;;;;;5009752;28;20040;-78
2022/02/08 14:32:34;;;;;;;3.35;1.40;;;18.10;67.00;;;;;;5010127;28;20041;-79
2022/02/08 14:35:31;;;;;;;4.18;1.00;;;18.10;67.00;;;;;;5027615;28;20441;-81
2022/02/08 14:49:07;;;;;;;3.42;1.40;;;18.10;66.80;;;;;;5019016;28;20032;-79
2022/02/08 15:10:25;;;;;;;3.80;0.70;;;18.00;66.50;;;;;;5022258;28;20047;-80
2022/02/08 15:12:57;;;;;;;3.08;1.00;;;17.90;66.40;;;;;;5045934;28;20135;-80
2022/02/08 15:17:50;;;;;;;3.15;1.40;;;17.80;66.30;;;;;;5045840;28;20032;-80
2022/02/08 15:20:16;;;;;;;2.45;0.60;;;17.80;66.40;;;;;;5046997;28;20087;-80
2022/02/08 15:22:42;;;;;;;1.48;0.63;;;17.70;66.20;;;;;;5029258;28;20032;-79
2022/02/08 15:25:12;;;;;;;1.63;0.80;;;17.70;66.20;;;;;;5046808;28;20094;-80
2022/02/08 15:27:40;;;;;;;1.15;0.45;;;17.70;66.20;;;;;;5012915;28;20029;-80
2022/02/08 15:30:08;;;;;;;1.85;0.88;;;17.70;66.40;;;;;;5046302;28;20522;-79
2022/02/08 15:32:35;;;;;;;1.67;0.63;;;17.60;66.00;;;;;;5046230;28;20123;-78
2022/02/08 15:35:08;;;;;;;1.13;0.40;;;17.60;66.00;;;;;;5046562;28;20037;-78
2022/02/08 15:37:35;;;;;;;2.90;0.68;;;17.60;66.00;;;;;;5046230;28;20472;-78
2022/02/08 15:40:05;;;;;;;1.83;0.68;;;17.60;66.00;;;;;;5046743;28;20481;-79
2022/02/08 15:42:32;;;;;;;2.45;0.70;;;17.60;66.00;;;;;;5047532;28;20611;-78
2022/02/08 15:45:17;;;;;;;2.95;0.70;;;17.60;66.10;;;;;;5012492;28;20033;-79
2022/02/08 15:47:43;;;;;;;1.50;0.57;;;17.60;66.10;;;;;;5046743;28;20120;-78
2022/02/08 15:50:15;;;;;;;1.80;0.77;;;17.60;66.10;;;;;;5027076;28;20034;-79
2022/02/08 15:55:15;;;;;;;3.55;0.80;;;17.50;66.10;;;;;;5026544;28;20036;-77
2022/02/08 15:58:02;;;;;;;0.93;0.50;;;17.40;66.00;;;;;;5025930;28;20439;-78
2022/02/08 16:06:29;;;;;;;1.13;0.60;;;17.30;66.10;;;;;;5026317;28;20433;-78
2022/02/08 16:08:49;;;;;;;4.10;1.20;;;17.10;65.90;;;;;;5006945;28;20486;-79
2022/02/08 16:13:52;;;;;;;2.45;0.82;;;17.00;65.90;;;;;;5007338;28;20045;-80
2022/02/08 16:16:38;;;;;;;2.17;0.60;;;16.90;65.80;;;;;;5006913;28;20041;-81
2022/02/08 16:19:37;;;;;;;2.92;0.60;;;16.90;65.90;;;;;;5017283;28;20235;-79
2022/02/08 16:24:59;;;;;;;1.98;0.68;;;16.70;65.80;;;;;;4992672;28;20041;-80
2022/02/08 16:27:53;;;;;;;1.15;0.50;;;16.70;66.00;;;;;;5009377;28;20022;-79
2022/02/08 16:31:03;;;;;;;2.92;0.98;;;16.60;66.00;;;;;;5009872;28;20033;-78
2022/02/08 16:59:34;;;;;;;5.20;1.20;;;15.90;66.40;;;;;;5007171;28;20117;-79
2022/02/08 17:02:03;;;;;;;;;;;15.80;66.30;;;;;;5031929;28;20041;-90
2022/02/08 17:04:30;;;;;;;3.03;1.50;;;15.70;66.20;;;;;;5012333;28;20276;-82
2022/02/08 17:06:56;;;;;;;3.75;1.02;;;15.70;66.40;;;;;;5036907;28;20072;-81
2022/02/08 17:12:21;;;;;;;3.72;1.05;;;15.60;66.40;;;;;;5049774;28;20115;-81
2022/02/08 17:48:01;;;;;;;2.72;0.73;;;15.00;67.00;;;;;;5048797;28;20044;-79
2022/02/08 17:50:27;;;;;;;2.22;1.13;;;15.00;67.10;;;;;;5031344;28;20366;-79
2022/02/08 17:52:55;;;;;;;8.10;2.13;;;14.90;67.00;;;;;;5048537;28;20037;-79
2022/02/08 17:55:22;;;;;;;3.33;0.70;;;14.90;67.10;;;;;;5031715;28;20029;-80
2022/02/08 17:57:49;;;;;;;2.63;1.10;;;14.90;67.20;;;;;;5042595;28;20033;-81
2022/02/08 18:00:16;;;;;;;1.90;0.70;;;14.80;67.00;;;;;;5034822;28;20033;-78
2022/02/08 18:02:44;;;;;;;3.15;0.90;;;14.70;66.90;;;;;;4999196;28;20026;-79
2022/02/08 18:05:11;;;;;;;2.22;0.85;;;14.70;67.00;;;;;;5036310;28;20021;-81
2022/02/08 18:07:37;;;;;;;3.20;1.00;;;14.70;67.10;;;;;;5039349;28;20075;-89
2022/02/08 18:10:05;;;;;;;2.95;0.93;;;14.70;67.30;;;;;;5029864;28;20017;-79
2022/02/08 18:12:31;;;;;;;2.78;0.90;;;14.70;67.50;;;;;;5029361;28;20045;-83
2022/02/08 18:15:01;;;;;;;5.05;1.30;;;14.60;67.40;;;;;;5026759;28;20045;-79
2022/02/08 18:17:31;;;;;;;3.75;0.80;;;14.70;67.60;;;;;;5029287;28;20083;-79
2022/02/08 18:20:06;;;;;;;3.22;0.82;;;14.60;67.50;;;;;;5035947;28;20611;-84
2022/02/08 18:22:49;;;;;;;2.45;0.80;;;14.60;67.60;;;;;;5027014;28;20022;-78
2022/02/08 19:16:29;;;;;;;4.45;1.52;;;14.40;69.10;;;;;;5036346;28;20274;-80
2022/02/08 19:23:51;;;;;;;3.22;1.23;;;14.30;69.00;;;;;;5045208;28;20040;-79
2022/02/08 19:26:18;;;;;;;2.70;0.90;;;14.30;69.10;;;;;;5047684;28;20100;-79
2022/02/08 19:28:45;;;;;;;4.00;1.40;;;14.30;69.10;;;;;;5027637;28;20499;-79
2022/02/08 19:31:12;;;;;;;3.35;1.13;;;14.30;69.20;;;;;;5047233;28;20029;-81
2022/02/08 19:33:38;;;;;;;4.00;0.95;;;14.30;69.10;;;;;;5039708;28;20030;-78
2022/02/08 19:36:05;;;;;;;2.10;0.90;;;14.30;69.10;;;;;;5034512;28;20128;-78
2022/02/08 19:38:37;;;;;;;2.25;0.85;;;14.30;69.10;;;;;;5030874;28;20037;-77
2022/02/08 19:41:03;;;;;;;3.60;1.60;;;14.30;69.10;;;;;;5023012;28;20057;-78
2022/02/08 19:43:29;;;;;;;4.93;0.90;;;14.30;69.00;;;;;;5049804;28;20138;-78
2022/02/08 19:45:55;;;;;;;4.13;0.98;;;14.30;69.00;;;;;;5041443;28;20022;-78
2022/02/08 19:48:22;;;;;;;3.92;1.40;;;14.30;69.00;;;;;;5037652;28;20047;-80
2022/02/08 19:50:49;;;;;;;3.63;1.48;;;14.30;69.00;;;;;;5013944;28;20121;-77
2022/02/08 19:53:15;;;;;;;4.63;1.58;;;14.20;68.90;;;;;;5014893;28;20117;-79
2022/02/08 19:58:20;;;;;;;5.15;1.10;;;14.30;69.60;;;;;;5028182;28;20120;-78
2022/02/08 20:00:56;;;;;;;5.30;1.48;;;14.40;69.90;;;;;;5027331;28;20065;-77
2022/02/08 20:03:24;;;;;;;2.35;0.88;;;14.50;70.00;;;;;;5027077;28;20416;-77
2022/02/08 20:05:50;;;;;;;3.00;1.30;;;14.70;70.20;;;;;;5029309;28;20037;-77
2022/02/08 20:08:16;;;;;;;2.28;1.00;;;14.70;70.00;;;;;;5030130;28;20073;-78
2022/02/08 20:10:42;;;;;;;3.80;1.50;;;14.90;70.20;;;;;;5030899;28;20061;-78
2022/02/08 20:13:10;;;;;;;2.50;1.10;;;15.00;70.20;;;;;;5030960;28;20043;-78
2022/02/08 20:15:36;;;;;;;4.97;1.98;;;15.10;70.30;;;;;;5030661;28;20034;-78
2022/02/08 20:18:03;;;;;;;2.33;1.30;;;15.20;70.20;;;;;;5029353;28;20415;-78
2022/02/08 20:20:29;;;;;;;2.80;1.23;;;15.30;70.20;;;;;;5019228;28;20029;-78
2022/02/08 20:23:00;;;;;;;2.97;0.90;;;15.40;70.20;;;;;;5046794;28;20033;-78
2022/02/08 20:25:27;;;;;;;5.15;1.27;;;15.50;70.20;;;;;;5046654;28;20020;-77
2022/02/08 20:28:36;;;;;;;3.88;1.02;;;15.60;70.30;;;;;;5045180;28;20036;-76
2022/02/08 20:30:45;;;;;;;3.57;1.53;;;15.70;70.30;;;;;;5028257;28;20076;-80
2022/02/08 20:33:12;;;;;;;2.22;1.00;;;15.80;70.30;;;;;;5030339;28;20042;-80
2022/02/08 20:35:40;;;;;;;4.18;0.90;;;15.80;70.00;;;;;;5030317;28;20060;-79
2022/02/08 20:38:06;;;;;;;4.68;1.40;;;15.80;69.90;;;;;;5030929;28;20057;-79
2022/02/08 20:40:37;;;;;;;2.22;1.00;;;15.80;69.80;;;;;;5031379;28;20088;-79
2022/02/08 20:43:05;;;;;;;3.10;1.08;;;15.70;70.20;;;;;;5013440;28;20566;-79
2022/02/08 20:45:35;;;;;;;6.93;2.08;;;15.60;69.50;;;;;;5013161;28;20272;-79
2022/02/08 20:48:02;;;;;;;3.13;0.93;;;15.60;69.60;;;;;;5030522;28;20029;-79
2022/02/08 20:50:28;;;;;;;4.20;1.70;;;15.50;69.50;;;;;;5030272;28;20061;-79